Time,TemperatureF,DewpointF,PressureIn,WindDirection,WindDirectionDegrees,WindSpeedMPH,WindSpeedGustMPH,Humidity,HourlyPrecipIn,Conditions,Clouds,dailyrainin,SoftwareType,DateUTC
2013-02-27 00:04:00,37.9,-11.9,29.92,WSW,250,0.0,0.0,11,0.00,,---,0.00,VWS V14.01,2013-02-27 07:04:00,
2013-02-27 00:10:00,38.1,-11.8,29.95,WSW,250,0.0,0.0,11,0.00,,---,0.00,VWS V14.01,2013-02-27 07:10:00,
2013-02-27 00:15:00,37.6,-12.2,29.95,WSW,250,0.0,0.0,11,0.00,,---,0.00,VWS V14.01,2013-02-27 07:15:00,
2013-02-27 00:20:00,37.2,-10.7,29.95,SW,235,0.0,0.0,12,0.00,,---,0.00,VWS V14.01,2013-02-27 07:20:00,
2013-02-27 00:25:00,37.0,-10.9,29.92,SW,235,0.0,0.0,12,0.00,,---,0.00,VWS V14.01,2013-02-27 07:25:00,
2013-02-27 00:30:00,36.9,-11.0,29.92,SSW,201,5.8,5.8,12,0.00,,---,0.00,VWS V14.01,2013-02-27 07:30:00,
2013-02-27 00:35:00,36.5,-11.3,29.92,SW,220,4.0,5.8,12,0.00,,---,0.00,VWS V14.01,2013-02-27 07:35:00,
2013-02-27 00:40:00,36.7,-11.1,29.95,SW,222,4.9,4.9,12,0.00,,---,0.00,VWS V14.01,2013-02-27 07:40:00,
2013-02-27 00:45:00,36.7,-11.1,29.95,SW,224,0.0,0.0,12,0.00,,---,0.00,VWS V14.01,2013-02-27 07:45:00,
2013-02-27 00:50:00,36.3,-11.4,29.95,SW,222,0.0,0.0,12,0.00,,---,0.00,VWS V14.01,2013-02-27 07:50:00,
2013-02-27 00:55:00,36.1,-11.6,29.95,WSW,239,0.0,0.0,12,0.00,,---,0.00,VWS V14.01,2013-02-27 07:55:00,
2013-02-27 01:00:00,35.6,-12.0,29.95,WSW,239,0.0,0.0,12,0.00,,---,0.00,VWS V14.01,2013-02-27 08:00:00,
2013-02-27 01:05:00,35.4,-12.1,29.95,WSW,241,0.0,0.0,12,0.00,,---,0.00,VWS V14.01,2013-02-27 08:05:00,
2013-02-27 01:11:00,34.9,-12.6,29.95,WSW,241,0.0,0.0,12,0.00,,---,0.00,VWS V14.01,2013-02-27 08:11:00,
2013-02-27 01:16:00,35.2,-12.3,29.95,WSW,240,0.0,0.0,12,0.00,,---,0.00,VWS V14.01,2013-02-27 08:16:00,
2013-02-27 01:21:00,35.4,-12.1,29.95,WSW,240,0.0,0.0,12,0.00,,---,0.00,VWS V14.01,2013-02-27 08:21:00,
2013-02-27 01:26:00,35.2,-12.3,29.95,WSW,237,0.0,0.0,12,0.00,,---,0.00,VWS V14.01,2013-02-27 08:26:00,
2013-02-27 01:31:00,35.1,-12.4,29.95,WSW,237,0.0,0.0,12,0.00,,---,0.00,VWS V14.01,2013-02-27 08:31:00,
2013-02-27 01:36:00,35.6,-12.0,29.95,WSW,237,0.0,0.0,12,0.00,,---,0.00,VWS V14.01,2013-02-27 08:36:00,
2013-02-27 01:41:00,35.8,-11.9,29.95,WSW,237,0.0,0.0,12,0.00,,---,0.00,VWS V14.01,2013-02-27 08:41:00,
2013-02-27 01:46:00,35.6,-12.0,29.95,WSW,237,0.0,0.0,12,0.00,,---,0.00,VWS V14.01,2013-02-27 08:46:00,
2013-02-27 01:51:00,35.8,-11.9,29.95,WSW,237,0.0,0.0,12,0.00,,---,0.00,VWS V14.01,2013-02-27 08:51:00,
2013-02-27 01:56:00,35.4,-12.1,29.95,WSW,237,0.0,0.0,12,0.00,,---,0.00,VWS V14.01,2013-02-27 08:56:00,
2013-02-27 02:01:00,35.6,-12.0,29.95,WSW,237,0.0,0.0,12,0.00,,---,0.00,VWS V14.01,2013-02-27 09:01:00,
2013-02-27 02:06:00,35.8,-11.9,29.95,WSW,237,0.0,0.0,12,0.00,,---,0.00,VWS V14.01,2013-02-27 09:06:00,
2013-02-27 02:11:00,35.2,-12.3,29.95,WSW,237,0.0,0.0,12,0.00,,---,0.00,VWS V14.01,2013-02-27 09:11:00,
2013-02-27 02:16:00,34.3,-13.0,29.95,WSW,237,0.0,0.0,12,0.00,,---,0.00,VWS V14.01,2013-02-27 09:16:00,
2013-02-27 02:21:00,33.8,-13.4,29.95,SW,235,0.0,0.0,12,0.00,,---,0.00,VWS V14.01,2013-02-27 09:21:00,
2013-02-27 02:26:00,33.3,-12.3,29.95,SW,235,0.0,0.0,13,0.00,,---,0.00,VWS V14.01,2013-02-27 09:26:00,
2013-02-27 02:32:00,33.1,-14.0,29.95,SW,235,0.0,0.0,12,0.00,,---,0.00,VWS V14.01,2013-02-27 09:32:00,
2013-02-27 02:37:00,33.4,-12.1,29.95,SW,219,0.0,0.0,13,0.00,,---,0.00,VWS V14.01,2013-02-27 09:37:00,
2013-02-27 02:42:00,33.4,-12.1,29.98,SW,218,0.0,0.0,13,0.00,,---,0.00,VWS V14.01,2013-02-27 09:42:00,
2013-02-27 02:47:00,33.3,-12.3,29.98,SW,217,0.0,0.0,13,0.00,,---,0.00,VWS V14.01,2013-02-27 09:47:00,
2013-02-27 02:52:00,33.3,-12.3,29.98,SW,218,0.0,0.0,13,0.00,,---,0.00,VWS V14.01,2013-02-27 09:52:00,
2013-02-27 02:57:00,32.7,-12.7,29.98,SSW,212,0.0,0.0,13,0.00,,---,0.00,VWS V14.01,2013-02-27 09:57:00,
2013-02-27 03:02:00,33.4,-12.1,29.98,SW,214,0.0,0.0,13,0.00,,---,0.00,VWS V14.01,2013-02-27 10:02:00,
2013-02-27 03:07:00,33.8,-13.4,29.98,SW,218,0.0,0.0,12,0.00,,---,0.00,VWS V14.01,2013-02-27 10:07:00,
2013-02-27 03:12:00,33.8,-13.4,29.95,SSW,201,4.9,4.9,12,0.00,,---,0.00,VWS V14.01,2013-02-27 10:12:00,
2013-02-27 03:17:00,33.8,-13.4,29.95,SW,218,0.0,3.6,12,0.00,,---,0.00,VWS V14.01,2013-02-27 10:17:00,
2013-02-27 03:22:00,33.8,-13.4,29.95,SW,218,0.0,0.0,12,0.00,,---,0.00,VWS V14.01,2013-02-27 10:22:00,
2013-02-27 03:27:00,33.6,-12.0,29.95,SW,218,0.0,0.0,13,0.00,,---,0.00,VWS V14.01,2013-02-27 10:27:00,
2013-02-27 03:32:00,33.6,-12.0,29.95,WSW,256,0.0,0.0,13,0.00,,---,0.00,VWS V14.01,2013-02-27 10:32:00,
2013-02-27 03:37:00,33.1,-14.0,29.98,NNW,346,0.0,0.0,12,0.00,,---,0.00,VWS V14.01,2013-02-27 10:37:00,
2013-02-27 03:42:00,32.7,-12.7,29.98,NNW,344,0.0,0.0,13,0.00,,---,0.00,VWS V14.01,2013-02-27 10:42:00,
2013-02-27 03:47:00,32.7,-12.7,29.98,West,281,0.0,0.0,13,0.00,,---,0.00,VWS V14.01,2013-02-27 10:47:00,
2013-02-27 03:52:00,32.4,-13.0,29.98,WNW,295,0.0,0.0,13,0.00,,---,0.00,VWS V14.01,2013-02-27 10:52:00,
2013-02-27 03:57:00,31.6,-15.1,29.95,WNW,293,0.0,0.0,12,0.00,,---,0.00,VWS V14.01,2013-02-27 10:57:00,
2013-02-27 04:02:00,30.7,-15.9,29.95,West,265,0.0,0.0,12,0.00,,---,0.00,VWS V14.01,2013-02-27 11:02:00,
2013-02-27 04:08:00,30.7,-15.9,29.95,WSW,257,0.0,0.0,12,0.00,,---,0.00,VWS V14.01,2013-02-27 11:08:00,
2013-02-27 04:13:00,30.9,-15.7,29.95,WSW,257,0.0,0.0,12,0.00,,---,0.00,VWS V14.01,2013-02-27 11:13:00,
2013-02-27 04:18:00,30.6,-16.0,29.98,WSW,256,0.0,0.0,12,0.00,,---,0.00,VWS V14.01,2013-02-27 11:18:00,
2013-02-27 04:23:00,30.9,-14.1,29.98,WNW,301,0.0,0.0,13,0.00,,---,0.00,VWS V14.01,2013-02-27 11:23:00,
2013-02-27 04:28:00,31.6,-13.6,29.98,West,271,0.0,0.0,13,0.00,,---,0.00,VWS V14.01,2013-02-27 11:28:00,
2013-02-27 04:33:00,32.0,-13.3,29.98,WSW,240,0.0,0.0,13,0.00,,---,0.00,VWS V14.01,2013-02-27 11:33:00,
2013-02-27 04:38:00,32.9,-12.6,29.98,SSW,203,0.0,0.0,13,0.00,,---,0.00,VWS V14.01,2013-02-27 11:38:00,
2013-02-27 04:43:00,33.4,-12.1,29.98,SSW,199,0.0,0.0,13,0.00,,---,0.00,VWS V14.01,2013-02-27 11:43:00,
2013-02-27 04:48:00,33.3,-12.3,29.98,SSW,211,2.7,2.7,13,0.00,,---,0.00,VWS V14.01,2013-02-27 11:48:00,
2013-02-27 04:53:00,33.1,-12.4,29.98,SSW,211,5.4,5.4,13,0.00,,---,0.00,VWS V14.01,2013-02-27 11:53:00,
2013-02-27 04:58:00,33.1,-12.4,29.98,SW,224,0.0,0.0,13,0.00,,---,0.00,VWS V14.01,2013-02-27 11:58:00,
2013-02-27 05:03:00,32.5,-12.8,29.98,SW,220,0.0,0.0,13,0.00,,---,0.00,VWS V14.01,2013-02-27 12:03:00,
2013-02-27 05:08:00,32.2,-13.1,29.98,SSW,212,0.0,0.0,13,0.00,,---,0.00,VWS V14.01,2013-02-27 12:08:00,
2013-02-27 05:13:00,32.2,-13.1,29.98,SSW,212,0.0,0.0,13,0.00,,---,0.00,VWS V14.01,2013-02-27 12:13:00,
2013-02-27 05:18:00,31.1,-15.6,29.98,SSW,212,0.0,0.0,12,0.00,,---,0.00,VWS V14.01,2013-02-27 12:18:00,
2013-02-27 05:23:00,30.2,-16.3,29.98,SSW,212,0.0,0.0,12,0.00,,---,0.00,VWS V14.01,2013-02-27 12:23:00,
2013-02-27 05:28:00,29.8,-16.6,29.98,SSW,212,0.0,0.0,12,0.00,,---,0.00,VWS V14.01,2013-02-27 12:28:00,
2013-02-27 05:33:00,29.7,-16.7,29.98,SSW,212,0.0,0.0,12,0.00,,---,0.00,VWS V14.01,2013-02-27 12:33:00,
2013-02-27 05:38:00,29.7,-16.7,29.98,SSW,212,0.0,0.0,12,0.00,,---,0.00,VWS V14.01,2013-02-27 12:38:00,
2013-02-27 05:44:00,29.7,-16.7,29.98,SSW,212,0.0,0.0,12,0.00,,---,0.00,VWS V14.01,2013-02-27 12:44:00,
2013-02-27 05:49:00,29.5,-15.3,29.98,SSW,212,0.0,0.0,13,0.00,,---,0.00,VWS V14.01,2013-02-27 12:49:00,
2013-02-27 05:54:00,29.7,-15.1,29.98,SSW,212,0.0,0.0,13,0.00,,---,0.00,VWS V14.01,2013-02-27 12:54:00,
2013-02-27 05:59:00,29.7,-15.1,29.98,SSW,212,0.0,0.0,13,0.00,,---,0.00,VWS V14.01,2013-02-27 12:59:00,
2013-02-27 06:04:00,29.7,-15.1,29.98,SSW,212,0.0,0.0,13,0.00,,---,0.00,VWS V14.01,2013-02-27 13:04:00,
2013-02-27 06:09:00,29.3,-15.4,30.01,SSW,212,0.0,0.0,13,0.00,,---,0.00,VWS V14.01,2013-02-27 13:09:00,
2013-02-27 06:14:00,29.3,-15.4,30.01,SSW,211,0.0,0.0,13,0.00,,---,0.00,VWS V14.01,2013-02-27 13:14:00,
2013-02-27 06:19:00,29.1,-15.6,30.01,SSW,211,0.0,0.0,13,0.00,,---,0.00,VWS V14.01,2013-02-27 13:19:00,
2013-02-27 06:24:00,28.8,-15.9,30.01,SSW,211,0.0,0.0,13,0.00,,---,0.00,VWS V14.01,2013-02-27 13:24:00,
2013-02-27 06:29:00,29.3,-15.4,30.01,SSW,209,0.0,0.0,13,0.00,,---,0.00,VWS V14.01,2013-02-27 13:29:00,
2013-02-27 06:35:00,29.5,-15.3,30.01,SSW,209,0.0,0.0,13,0.00,,---,0.00,VWS V14.01,2013-02-27 13:35:00,
2013-02-27 06:40:00,28.6,-16.0,30.01,SW,215,0.0,0.0,13,0.00,,---,0.00,VWS V14.01,2013-02-27 13:40:00,
2013-02-27 06:45:00,26.8,-19.0,30.01,SW,215,0.0,0.0,12,0.00,,---,0.00,VWS V14.01,2013-02-27 13:45:00,
2013-02-27 06:50:00,26.2,-17.9,30.01,SW,216,0.0,0.0,13,0.00,,---,0.00,VWS V14.01,2013-02-27 13:50:00,
2013-02-27 06:55:00,26.4,-16.3,30.01,SW,232,0.0,0.0,14,0.00,,---,0.00,VWS V14.01,2013-02-27 13:55:00,
2013-02-27 07:00:00,26.8,-17.5,30.01,West,259,0.0,0.0,13,0.00,,---,0.00,VWS V14.01,2013-02-27 14:00:00,
2013-02-27 07:05:00,27.1,-17.2,30.01,WNW,289,0.0,0.0,13,0.00,,---,0.00,VWS V14.01,2013-02-27 14:05:00,
2013-02-27 07:10:00,27.9,-16.6,30.01,WNW,292,4.9,4.9,13,0.00,,---,0.00,VWS V14.01,2013-02-27 14:10:00,
2013-02-27 07:15:00,28.4,-16.2,30.01,WNW,289,4.0,4.0,13,0.00,,---,0.00,VWS V14.01,2013-02-27 14:15:00,
2013-02-27 07:20:00,28.6,-16.0,30.01,West,277,4.0,4.0,13,0.00,,---,0.00,VWS V14.01,2013-02-27 14:20:00,
2013-02-27 07:26:00,29.5,-15.3,30.01,WSW,257,5.8,5.8,13,0.00,,---,0.00,VWS V14.01,2013-02-27 14:26:00,
2013-02-27 07:31:00,30.2,-14.7,30.01,West,273,3.6,5.4,13,0.00,,---,0.00,VWS V14.01,2013-02-27 14:31:00,
2013-02-27 07:36:00,31.3,-13.9,30.01,West,270,2.7,2.7,13,0.00,,---,0.00,VWS V14.01,2013-02-27 14:36:00,
2013-02-27 07:41:00,32.0,-13.3,30.01,West,270,0.0,0.0,13,0.00,,---,0.00,VWS V14.01,2013-02-27 14:41:00,
2013-02-27 07:46:00,33.1,-12.4,30.01,West,268,4.0,4.0,13,0.00,,---,0.00,VWS V14.01,2013-02-27 14:46:00,
2013-02-27 07:51:00,33.6,-12.0,30.01,West,270,2.7,2.7,13,0.00,,---,0.00,VWS V14.01,2013-02-27 14:51:00,
2013-02-27 07:56:00,35.1,-12.4,30.01,West,270,3.6,3.6,12,0.00,,---,0.00,VWS V14.01,2013-02-27 14:56:00,
2013-02-27 08:01:00,35.8,-11.9,30.01,WNW,293,3.1,3.1,12,0.00,,---,0.00,VWS V14.01,2013-02-27 15:01:00,
2013-02-27 08:06:00,36.5,-11.3,30.03,WNW,293,0.0,0.0,12,0.00,,---,0.00,VWS V14.01,2013-02-27 15:06:00,
2013-02-27 08:11:00,37.2,-10.7,30.03,West,275,4.0,4.0,12,0.00,,---,0.00,VWS V14.01,2013-02-27 15:11:00,
2013-02-27 08:16:00,38.1,-11.8,30.03,West,281,0.0,0.0,11,0.00,,---,0.00,VWS V14.01,2013-02-27 15:16:00,
2013-02-27 08:22:00,38.3,-11.6,30.03,NNW,330,5.4,5.4,11,0.00,,---,0.00,VWS V14.01,2013-02-27 15:22:00,
2013-02-27 08:27:00,39.4,-10.8,30.03,WNW,286,0.0,3.6,11,0.00,,---,0.00,VWS V14.01,2013-02-27 15:27:00,
2013-02-27 08:32:00,39.7,-10.5,30.03,West,267,4.9,4.9,11,0.00,,---,0.00,VWS V14.01,2013-02-27 15:32:00,
2013-02-27 08:37:00,40.5,-9.9,30.03,NW,319,0.0,3.1,11,0.00,,---,0.00,VWS V14.01,2013-02-27 15:37:00,
2013-02-27 08:42:00,41.2,-9.3,30.03,NW,322,3.1,3.1,11,0.00,,---,0.00,VWS V14.01,2013-02-27 15:42:00,
2013-02-27 08:47:00,41.7,-8.9,30.03,NW,314,0.0,0.0,11,0.00,,---,0.00,VWS V14.01,2013-02-27 15:47:00,
2013-02-27 08:52:00,42.1,-8.6,30.03,NW,319,0.0,0.0,11,0.00,,---,0.00,VWS V14.01,2013-02-27 15:52:00,
2013-02-27 08:57:00,42.3,-8.5,30.03,NW,307,0.0,0.0,11,0.00,,---,0.00,VWS V14.01,2013-02-27 15:57:00,
2013-02-27 09:02:00,42.6,-8.2,30.03,NNW,334,0.0,0.0,11,0.00,,---,0.00,VWS V14.01,2013-02-27 16:02:00,
2013-02-27 09:07:00,42.8,-10.0,30.03,NW,315,4.9,5.8,10,0.00,,---,0.00,VWS V14.01,2013-02-27 16:07:00,
2013-02-27 09:12:00,43.2,-9.7,30.03,WNW,302,0.0,0.0,10,0.00,,---,0.00,VWS V14.01,2013-02-27 16:12:00,
2013-02-27 09:18:00,43.3,-9.6,30.03,NW,309,0.0,0.0,10,0.00,,---,0.00,VWS V14.01,2013-02-27 16:18:00,
2013-02-27 09:23:00,43.9,-9.2,30.03,West,268,2.2,5.8,10,0.00,,---,0.00,VWS V14.01,2013-02-27 16:23:00,
2013-02-27 09:28:00,43.9,-9.2,30.03,West,264,0.0,0.0,10,0.00,,---,0.00,VWS V14.01,2013-02-27 16:28:00,
2013-02-27 09:33:00,44.4,-8.8,30.03,WNW,283,3.6,3.6,10,0.00,,---,0.00,VWS V14.01,2013-02-27 16:33:00,
2013-02-27 09:38:00,44.8,-8.5,30.03,WNW,292,2.7,2.7,10,0.00,,---,0.00,VWS V14.01,2013-02-27 16:38:00,
2013-02-27 09:43:00,45.3,-8.1,30.03,West,271,0.0,4.9,10,0.00,,---,0.00,VWS V14.01,2013-02-27 16:43:00,
2013-02-27 09:48:00,45.3,-8.1,30.03,NW,304,5.4,5.4,10,0.00,,---,0.00,VWS V14.01,2013-02-27 16:48:00,
2013-02-27 09:53:00,45.5,-7.9,30.03,NNW,330,2.7,5.4,10,0.00,,---,0.00,VWS V14.01,2013-02-27 16:53:00,
2013-02-27 09:58:00,45.3,-8.1,30.03,West,267,3.1,3.1,10,0.00,,---,0.00,VWS V14.01,2013-02-27 16:58:00,
2013-02-27 10:03:00,45.3,-8.1,30.03,WSW,240,0.0,0.0,10,0.00,,---,0.00,VWS V14.01,2013-02-27 17:03:00,
2013-02-27 10:08:00,46.0,-7.5,30.03,WNW,290,4.9,7.2,10,0.00,,---,0.00,VWS V14.01,2013-02-27 17:08:00,
2013-02-27 10:13:00,46.8,-9.1,30.03,West,265,6.3,6.3,9,0.00,,---,0.00,VWS V14.01,2013-02-27 17:13:00,
2013-02-27 10:19:00,46.6,-9.2,30.03,WNW,300,3.6,3.6,9,0.00,,---,0.00,VWS V14.01,2013-02-27 17:19:00,
2013-02-27 10:24:00,47.3,-8.7,30.03,SSE,152,4.0,5.4,9,0.00,,---,0.00,VWS V14.01,2013-02-27 17:24:00,
2013-02-27 10:29:00,47.5,-8.5,30.03,SW,220,0.0,0.0,9,0.00,,---,0.00,VWS V14.01,2013-02-27 17:29:00,
2013-02-27 10:34:00,47.7,-8.4,30.03,WNW,290,3.6,6.3,9,0.00,,---,0.00,VWS V14.01,2013-02-27 17:34:00,
2013-02-27 10:39:00,48.2,-8.0,30.03,WNW,290,2.7,2.7,9,0.00,,---,0.00,VWS V14.01,2013-02-27 17:39:00,
2013-02-27 10:44:00,48.0,-8.1,30.03,WNW,298,0.0,0.0,9,0.00,,---,0.00,VWS V14.01,2013-02-27 17:44:00,
2013-02-27 10:49:00,47.7,-8.4,30.03,NNE,13,0.0,0.0,9,0.00,,---,0.00,VWS V14.01,2013-02-27 17:49:00,
2013-02-27 10:54:00,48.0,-8.1,30.03,NNW,332,7.6,7.6,9,0.00,,---,0.00,VWS V14.01,2013-02-27 17:54:00,
2013-02-27 10:59:00,48.2,-8.0,30.03,WSW,242,5.8,5.8,9,0.00,,---,0.00,VWS V14.01,2013-02-27 17:59:00,
2013-02-27 11:04:00,48.4,-7.8,30.01,NNW,342,0.0,0.0,9,0.00,,---,0.00,VWS V14.01,2013-02-27 18:04:00,
2013-02-27 11:09:00,48.9,-7.4,30.01,NNE,19,4.9,7.6,9,0.00,,---,0.00,VWS V14.01,2013-02-27 18:09:00,
2013-02-27 11:14:00,49.8,-6.7,30.01,NNE,25,8.3,8.3,9,0.00,,---,0.00,VWS V14.01,2013-02-27 18:14:00,
2013-02-27 11:19:00,49.8,-6.7,30.01,North,10,4.0,4.0,9,0.00,,---,0.00,VWS V14.01,2013-02-27 18:19:00,
2013-02-27 11:24:00,50.0,-6.6,30.01,NW,312,6.3,6.3,9,0.00,,---,0.00,VWS V14.01,2013-02-27 18:24:00,
2013-02-27 11:29:00,50.2,-6.5,30.01,NW,317,0.0,0.0,9,0.00,,---,0.00,VWS V14.01,2013-02-27 18:29:00,
2013-02-27 11:34:00,50.4,-6.3,30.01,WSW,257,3.6,5.8,9,0.00,,---,0.00,VWS V14.01,2013-02-27 18:34:00,
2013-02-27 11:39:00,49.6,-6.9,30.01,SW,219,0.0,4.0,9,0.00,,---,0.00,VWS V14.01,2013-02-27 18:39:00,
2013-02-27 11:44:00,49.6,-6.9,30.01,West,260,3.6,3.6,9,0.00,,---,0.00,VWS V14.01,2013-02-27 18:44:00,
2013-02-27 11:50:00,50.2,-6.5,30.01,SW,230,6.3,6.3,9,0.00,,---,0.00,VWS V14.01,2013-02-27 18:50:00,
2013-02-27 11:55:00,50.5,-6.2,30.01,NNW,346,3.6,5.4,9,0.00,,---,0.00,VWS V14.01,2013-02-27 18:55:00,
2013-02-27 12:00:00,50.9,-5.9,30.01,ESE,111,6.7,6.7,9,0.00,,---,0.00,VWS V14.01,2013-02-27 19:00:00,
2013-02-27 12:05:00,51.1,-5.8,30.01,WSW,239,3.6,3.6,9,0.00,,---,0.00,VWS V14.01,2013-02-27 19:05:00,
2013-02-27 12:10:00,51.3,-5.6,30.01,NW,315,7.6,7.6,9,0.00,,---,0.00,VWS V14.01,2013-02-27 19:10:00,
2013-02-27 12:15:00,51.6,-5.4,30.01,East,81,3.1,6.3,9,0.00,,---,0.00,VWS V14.01,2013-02-27 19:15:00,
2013-02-27 12:20:00,52.3,-7.2,30.01,NW,321,8.1,8.1,8,0.00,,---,0.00,VWS V14.01,2013-02-27 19:20:00,
2013-02-27 12:25:00,52.3,-7.2,29.98,East,85,0.0,0.0,8,0.00,,---,0.00,VWS V14.01,2013-02-27 19:25:00,
2013-02-27 12:30:00,53.1,-6.7,29.98,NE,49,3.1,3.1,8,0.00,,---,0.00,VWS V14.01,2013-02-27 19:30:00,
2013-02-27 12:35:00,52.9,-6.8,29.98,East,101,0.0,0.0,8,0.00,,---,0.00,VWS V14.01,2013-02-27 19:35:00,
2013-02-27 12:40:00,53.6,-6.3,29.98,NNW,343,12.3,12.3,8,0.00,,---,0.00,VWS V14.01,2013-02-27 19:40:00,
2013-02-27 12:45:00,54.1,-5.9,29.98,NNE,12,3.6,3.6,8,0.00,,---,0.00,VWS V14.01,2013-02-27 19:45:00,
2013-02-27 12:50:00,54.5,-5.6,29.98,NW,321,5.4,5.4,8,0.00,,---,0.00,VWS V14.01,2013-02-27 19:50:00,
2013-02-27 12:55:00,54.3,-5.8,29.98,NNE,22,5.4,5.4,8,0.00,,---,0.00,VWS V14.01,2013-02-27 19:55:00,
2013-02-27 13:01:00,55.2,-5.1,29.98,East,82,0.0,2.7,8,0.00,,---,0.00,VWS V14.01,2013-02-27 20:01:00,
2013-02-27 13:06:00,55.2,-5.1,29.98,ESE,111,3.6,4.0,8,0.00,,---,0.00,VWS V14.01,2013-02-27 20:06:00,
2013-02-27 13:11:00,55.4,-7.7,29.98,North,349,5.4,5.4,7,0.00,,---,0.00,VWS V14.01,2013-02-27 20:11:00,
2013-02-27 13:16:00,55.6,-7.6,29.98,ENE,64,5.4,5.4,7,0.00,,---,0.00,VWS V14.01,2013-02-27 20:16:00,
2013-02-27 13:21:00,55.8,-7.4,29.98,ESE,104,5.4,5.4,7,0.00,,---,0.00,VWS V14.01,2013-02-27 20:21:00,
2013-02-27 13:26:00,55.8,-7.4,29.98,North,0,5.4,5.4,7,0.00,,---,0.00,VWS V14.01,2013-02-27 20:26:00,
2013-02-27 13:31:00,55.9,-7.3,29.98,NNE,16,4.9,4.9,7,0.00,,---,0.00,VWS V14.01,2013-02-27 20:31:00,
2013-02-27 13:36:00,55.8,-7.4,29.98,NNE,20,7.2,7.2,7,0.00,,---,0.00,VWS V14.01,2013-02-27 20:36:00,
2013-02-27 13:41:00,55.8,-7.4,29.95,NW,320,5.4,5.4,7,0.00,,---,0.00,VWS V14.01,2013-02-27 20:41:00,
2013-02-27 13:46:00,55.4,-7.7,29.95,SW,235,4.9,4.9,7,0.00,,---,0.00,VWS V14.01,2013-02-27 20:46:00,
2013-02-27 13:51:00,55.2,-5.1,29.95,SW,236,0.0,4.0,8,0.00,,---,0.00,VWS V14.01,2013-02-27 20:51:00,
2013-02-27 13:56:00,55.2,-5.1,29.95,NNW,345,0.0,0.0,8,0.00,,---,0.00,VWS V14.01,2013-02-27 20:56:00,
2013-02-27 14:02:00,55.8,-7.4,29.95,NNE,22,2.2,8.3,7,0.00,,---,0.00,VWS V14.01,2013-02-27 21:02:00,
2013-02-27 14:07:00,56.3,-7.0,29.95,North,6,5.8,8.3,7,0.00,,---,0.00,VWS V14.01,2013-02-27 21:07:00,
2013-02-27 14:12:00,56.3,-7.0,29.95,North,357,8.1,8.1,7,0.00,,---,0.00,VWS V14.01,2013-02-27 21:12:00,
2013-02-27 14:17:00,56.3,-7.0,29.95,NNW,340,2.7,3.6,7,0.00,,---,0.00,VWS V14.01,2013-02-27 21:17:00,
2013-02-27 14:22:00,56.1,-7.2,29.95,NNW,329,4.9,4.9,7,0.00,,---,0.00,VWS V14.01,2013-02-27 21:22:00,
2013-02-27 14:27:00,55.8,-7.4,29.95,West,270,0.0,0.0,7,0.00,,---,0.00,VWS V14.01,2013-02-27 21:27:00,
2013-02-27 14:32:00,55.9,-7.3,29.95,North,353,5.8,5.8,7,0.00,,---,0.00,VWS V14.01,2013-02-27 21:32:00,
2013-02-27 14:37:00,55.9,-7.3,29.95,NNE,22,7.6,7.6,7,0.00,,---,0.00,VWS V14.01,2013-02-27 21:37:00,
2013-02-27 14:42:00,56.8,-6.6,29.95,NW,319,5.4,5.4,7,0.00,,---,0.00,VWS V14.01,2013-02-27 21:42:00,
2013-02-27 14:47:00,56.8,-6.6,29.95,NW,310,3.6,6.3,7,0.00,,---,0.00,VWS V14.01,2013-02-27 21:47:00,
2013-02-27 14:52:00,56.8,-6.6,29.95,WSW,249,0.0,0.0,7,0.00,,---,0.00,VWS V14.01,2013-02-27 21:52:00,
2013-02-27 14:58:00,56.8,-6.6,29.95,ENE,71,0.0,0.0,7,0.00,,---,0.00,VWS V14.01,2013-02-27 21:58:00,
2013-02-27 15:03:00,56.3,-7.0,29.95,SE,138,0.0,2.7,7,0.00,,---,0.00,VWS V14.01,2013-02-27 22:03:00,
2013-02-27 15:08:00,56.7,-6.8,29.95,North,10,2.2,3.1,7,0.00,,---,0.00,VWS V14.01,2013-02-27 22:08:00,
2013-02-27 15:13:00,57.2,-6.3,29.95,NW,324,3.6,3.6,7,0.00,,---,0.00,VWS V14.01,2013-02-27 22:13:00,
2013-02-27 15:18:00,57.2,-6.3,29.95,NW,320,5.4,6.3,7,0.00,,---,0.00,VWS V14.01,2013-02-27 22:18:00,
2013-02-27 15:23:00,57.6,-6.1,29.95,NW,308,2.7,5.4,7,0.00,,---,0.00,VWS V14.01,2013-02-27 22:23:00,
2013-02-27 15:28:00,57.4,-6.2,29.95,NW,324,4.0,4.0,7,0.00,,---,0.00,VWS V14.01,2013-02-27 22:28:00,
2013-02-27 15:33:00,57.6,-6.1,29.95,SW,219,0.0,0.0,7,0.00,,---,0.00,VWS V14.01,2013-02-27 22:33:00,
2013-02-27 15:38:00,57.4,-6.2,29.95,WNW,285,0.0,0.0,7,0.00,,---,0.00,VWS V14.01,2013-02-27 22:38:00,
2013-02-27 15:43:00,57.6,-6.1,29.95,West,265,0.0,5.4,7,0.00,,---,0.00,VWS V14.01,2013-02-27 22:43:00,
2013-02-27 15:48:00,58.1,-5.7,29.95,WSW,244,2.7,3.1,7,0.00,,---,0.00,VWS V14.01,2013-02-27 22:48:00,
2013-02-27 15:54:00,57.0,-6.5,29.95,WSW,250,4.9,4.9,7,0.00,,---,0.00,VWS V14.01,2013-02-27 22:54:00,
2013-02-27 15:59:00,57.2,-6.3,29.95,SSE,156,0.0,0.0,7,0.00,,---,0.00,VWS V14.01,2013-02-27 22:59:00,
2013-02-27 16:04:00,57.6,-6.1,29.95,ENE,62,2.7,2.7,7,0.00,,---,0.00,VWS V14.01,2013-02-27 23:04:00,
2013-02-27 16:09:00,57.6,-6.1,29.95,ENE,76,5.4,5.4,7,0.00,,---,0.00,VWS V14.01,2013-02-27 23:09:00,
2013-02-27 16:14:00,57.4,-6.2,29.92,NNE,20,5.8,6.3,7,0.00,,---,0.00,VWS V14.01,2013-02-27 23:14:00,
2013-02-27 16:19:00,57.2,-6.3,29.92,NE,46,4.5,4.5,7,0.00,,---,0.00,VWS V14.01,2013-02-27 23:19:00,
2013-02-27 16:24:00,57.2,-6.3,29.92,North,9,3.1,3.1,7,0.00,,---,0.00,VWS V14.01,2013-02-27 23:24:00,
2013-02-27 16:29:00,57.4,-6.2,29.92,NE,36,2.2,3.6,7,0.00,,---,0.00,VWS V14.01,2013-02-27 23:29:00,
2013-02-27 16:34:00,57.6,-6.1,29.92,NE,36,3.1,3.1,7,0.00,,---,0.00,VWS V14.01,2013-02-27 23:34:00,
2013-02-27 16:39:00,57.2,-6.3,29.92,North,357,5.8,6.7,7,0.00,,---,0.00,VWS V14.01,2013-02-27 23:39:00,
2013-02-27 16:45:00,57.0,-6.5,29.92,North,357,5.8,5.8,7,0.00,,---,0.00,VWS V14.01,2013-02-27 23:45:00,
2013-02-27 16:50:00,57.0,-6.5,29.92,ENE,73,4.9,4.9,7,0.00,,---,0.00,VWS V14.01,2013-02-27 23:50:00,
2013-02-27 16:55:00,57.0,-6.5,29.92,East,91,3.6,3.6,7,0.00,,---,0.00,VWS V14.01,2013-02-27 23:55:00,
2013-02-27 17:00:00,56.8,-6.6,29.92,East,91,0.0,0.0,7,0.00,,---,0.00,VWS V14.01,2013-02-28 00:00:00,
2013-02-27 17:05:00,56.7,-6.8,29.92,East,91,0.0,0.0,7,0.00,,---,0.00,VWS V14.01,2013-02-28 00:05:00,
2013-02-27 17:10:00,56.3,-7.0,29.92,East,91,0.0,0.0,7,0.00,,---,0.00,VWS V14.01,2013-02-28 00:10:00,
2013-02-27 17:15:00,56.1,-7.2,29.95,East,87,0.0,0.0,7,0.00,,---,0.00,VWS V14.01,2013-02-28 00:15:00,
2013-02-27 17:21:00,55.8,-7.4,29.95,ENE,71,3.6,3.6,7,0.00,,---,0.00,VWS V14.01,2013-02-28 00:21:00,
2013-02-27 17:26:00,55.2,-5.1,29.95,North,11,0.0,3.6,8,0.00,,---,0.00,VWS V14.01,2013-02-28 00:26:00,
2013-02-27 17:31:00,54.9,-5.3,29.95,North,0,0.0,0.0,8,0.00,,---,0.00,VWS V14.01,2013-02-28 00:31:00,
2013-02-27 17:36:00,54.5,-5.6,29.95,NW,322,0.0,0.0,8,0.00,,---,0.00,VWS V14.01,2013-02-28 00:36:00,
2013-02-27 17:41:00,54.1,-5.9,29.95,NE,42,0.0,0.0,8,0.00,,---,0.00,VWS V14.01,2013-02-28 00:41:00,
2013-02-27 17:46:00,54.0,-6.0,29.95,North,9,0.0,0.0,8,0.00,,---,0.00,VWS V14.01,2013-02-28 00:46:00,
2013-02-27 17:52:00,53.2,-6.6,29.95,North,9,0.0,0.0,8,0.00,,---,0.00,VWS V14.01,2013-02-28 00:52:00,
2013-02-27 17:57:00,52.7,-7.0,29.95,North,9,0.0,0.0,8,0.00,,---,0.00,VWS V14.01,2013-02-28 00:57:00,
2013-02-27 18:02:00,52.2,-7.4,29.95,North,9,0.0,0.0,8,0.00,,---,0.00,VWS V14.01,2013-02-28 01:02:00,
2013-02-27 18:07:00,51.6,-5.4,29.95,North,9,0.0,0.0,9,0.00,,---,0.00,VWS V14.01,2013-02-28 01:07:00,
2013-02-27 18:12:00,51.1,-5.8,29.95,North,9,0.0,0.0,9,0.00,,---,0.00,VWS V14.01,2013-02-28 01:12:00,
2013-02-27 18:17:00,50.0,-6.6,29.95,North,9,0.0,0.0,9,0.00,,---,0.00,VWS V14.01,2013-02-28 01:17:00,
2013-02-27 18:22:00,48.7,-7.6,29.95,SW,222,0.0,0.0,9,0.00,,---,0.00,VWS V14.01,2013-02-28 01:22:00,
2013-02-27 18:27:00,48.6,-7.7,29.95,SW,222,0.0,0.0,9,0.00,,---,0.00,VWS V14.01,2013-02-28 01:27:00,
2013-02-27 18:33:00,47.8,-8.3,29.95,SW,218,0.0,0.0,9,0.00,,---,0.00,VWS V14.01,2013-02-28 01:33:00,
2013-02-27 18:38:00,47.5,-8.5,29.95,SW,220,0.0,0.0,9,0.00,,---,0.00,VWS V14.01,2013-02-28 01:38:00,
2013-02-27 18:43:00,46.8,-9.1,29.95,SW,220,0.0,0.0,9,0.00,,---,0.00,VWS V14.01,2013-02-28 01:43:00,
2013-02-27 18:48:00,46.6,-9.2,29.95,SSW,212,0.0,0.0,9,0.00,,---,0.00,VWS V14.01,2013-02-28 01:48:00,
2013-02-27 18:53:00,46.6,-9.2,29.95,SW,216,0.0,0.0,9,0.00,,---,0.00,VWS V14.01,2013-02-28 01:53:00,
2013-02-27 18:59:00,46.6,-9.2,29.95,SW,216,0.0,0.0,9,0.00,,---,0.00,VWS V14.01,2013-02-28 01:59:00,
2013-02-27 19:04:00,45.9,-7.6,29.95,SSW,211,0.0,0.0,10,0.00,,---,0.00,VWS V14.01,2013-02-28 02:04:00,
2013-02-27 19:09:00,45.5,-7.9,29.98,SSW,211,0.0,0.0,10,0.00,,---,0.00,VWS V14.01,2013-02-28 02:09:00,
2013-02-27 19:14:00,45.3,-8.1,29.98,SSW,210,0.0,0.0,10,0.00,,---,0.00,VWS V14.01,2013-02-28 02:14:00,
2013-02-27 19:19:00,45.1,-8.2,29.98,SSW,209,0.0,0.0,10,0.00,,---,0.00,VWS V14.01,2013-02-28 02:19:00,
2013-02-27 19:24:00,45.3,-8.1,29.98,SE,139,4.0,4.0,10,0.00,,---,0.00,VWS V14.01,2013-02-28 02:24:00,
2013-02-27 19:29:00,44.8,-8.5,29.98,South,172,6.3,6.3,10,0.00,,---,0.00,VWS V14.01,2013-02-28 02:29:00,
2013-02-27 19:35:00,44.1,-9.0,29.98,SE,130,4.9,6.3,10,0.00,,---,0.00,VWS V14.01,2013-02-28 02:35:00,
2013-02-27 19:40:00,44.1,-9.0,29.98,SE,138,4.9,4.9,10,0.00,,---,0.00,VWS V14.01,2013-02-28 02:40:00,
2013-02-27 19:45:00,44.1,-9.0,29.98,SSE,149,2.7,2.7,10,0.00,,---,0.00,VWS V14.01,2013-02-28 02:45:00,
2013-02-27 19:50:00,43.9,-9.2,29.98,SE,145,3.6,3.6,10,0.00,,---,0.00,VWS V14.01,2013-02-28 02:50:00,
2013-02-27 19:55:00,44.1,-9.0,30.01,SE,124,5.8,5.8,10,0.00,,---,0.00,VWS V14.01,2013-02-28 02:55:00,
2013-02-27 20:00:00,43.7,-9.3,30.01,SE,146,2.7,2.7,10,0.00,,---,0.00,VWS V14.01,2013-02-28 03:00:00,
2013-02-27 20:05:00,43.3,-9.6,30.01,SSE,152,0.0,0.0,10,0.00,,---,0.00,VWS V14.01,2013-02-28 03:05:00,
2013-02-27 20:11:00,43.2,-9.7,30.01,SE,140,3.1,3.1,10,0.00,,---,0.00,VWS V14.01,2013-02-28 03:11:00,
2013-02-27 20:16:00,43.0,-9.9,30.01,SE,140,3.1,3.1,10,0.00,,---,0.00,VWS V14.01,2013-02-28 03:16:00,
2013-02-27 20:21:00,43.0,-9.9,30.01,SSE,164,0.0,0.0,10,0.00,,---,0.00,VWS V14.01,2013-02-28 03:21:00,
2013-02-27 20:26:00,42.8,-10.0,30.01,SW,217,0.0,0.0,10,0.00,,---,0.00,VWS V14.01,2013-02-28 03:26:00,
2013-02-27 20:31:00,42.4,-8.4,30.01,SW,229,0.0,0.0,11,0.00,,---,0.00,VWS V14.01,2013-02-28 03:31:00,
2013-02-27 20:36:00,42.4,-8.4,30.01,SW,233,0.0,0.0,11,0.00,,---,0.00,VWS V14.01,2013-02-28 03:36:00,
2013-02-27 20:41:00,42.4,-8.4,30.01,SW,221,0.0,0.0,11,0.00,,---,0.00,VWS V14.01,2013-02-28 03:41:00,
2013-02-27 20:46:00,42.3,-8.5,30.01,SW,230,5.4,5.4,11,0.00,,---,0.00,VWS V14.01,2013-02-28 03:46:00,
2013-02-27 20:52:00,42.3,-8.5,30.01,SSW,209,0.0,0.0,11,0.00,,---,0.00,VWS V14.01,2013-02-28 03:52:00,
2013-02-27 20:57:00,42.3,-8.5,30.01,SW,229,3.1,3.1,11,0.00,,---,0.00,VWS V14.01,2013-02-28 03:57:00,
2013-02-27 21:02:00,42.3,-8.5,30.01,SW,231,4.9,4.9,11,0.00,,---,0.00,VWS V14.01,2013-02-28 04:02:00,
2013-02-27 21:07:00,41.9,-8.8,30.01,WSW,239,3.6,3.6,11,0.00,,---,0.00,VWS V14.01,2013-02-28 04:07:00,
2013-02-27 21:12:00,41.5,-9.1,30.01,SSW,206,0.0,0.0,11,0.00,,---,0.00,VWS V14.01,2013-02-28 04:12:00,
2013-02-27 21:17:00,41.2,-9.3,30.01,SSE,164,0.0,0.0,11,0.00,,---,0.00,VWS V14.01,2013-02-28 04:17:00,
2013-02-27 21:22:00,40.5,-9.9,30.01,SW,225,0.0,0.0,11,0.00,,---,0.00,VWS V14.01,2013-02-28 04:22:00,
2013-02-27 21:27:00,39.4,-10.8,30.03,SW,223,0.0,0.0,11,0.00,,---,0.00,VWS V14.01,2013-02-28 04:27:00,
2013-02-27 21:32:00,40.3,-10.1,30.03,SSW,207,0.0,0.0,11,0.00,,---,0.00,VWS V14.01,2013-02-28 04:32:00,
2013-02-27 21:37:00,39.9,-10.3,30.03,SSW,202,0.0,0.0,11,0.00,,---,0.00,VWS V14.01,2013-02-28 04:37:00,
2013-02-27 21:43:00,39.2,-10.9,30.03,SSW,211,0.0,0.0,11,0.00,,---,0.00,VWS V14.01,2013-02-28 04:43:00,
2013-02-27 21:48:00,38.7,-11.3,30.03,SSW,203,0.0,0.0,11,0.00,,---,0.00,VWS V14.01,2013-02-28 04:48:00,
2013-02-27 21:53:00,37.9,-11.9,30.03,SSW,203,0.0,0.0,11,0.00,,---,0.00,VWS V14.01,2013-02-28 04:53:00,
2013-02-27 21:58:00,38.5,-11.5,30.03,SSW,205,0.0,0.0,11,0.00,,---,0.00,VWS V14.01,2013-02-28 04:58:00,
2013-02-27 22:00:00,38.8,-11.2,30.03,SSW,210,0.0,0.0,11,0.00,,---,0.00,VWS V14.01,2013-02-28 05:00:00,
2013-02-27 22:01:00,38.8,-11.2,30.03,SSW,210,0.0,0.0,11,0.00,,---,0.00,VWS V14.01,2013-02-28 05:01:00,
2013-02-27 22:06:00,39.2,-10.9,30.03,SSW,209,0.0,0.0,11,0.00,,---,0.00,VWS V14.01,2013-02-28 05:06:00,
2013-02-27 22:11:00,38.8,-11.2,30.03,SSW,208,0.0,0.0,11,0.00,,---,0.00,VWS V14.01,2013-02-28 05:11:00,
2013-02-27 22:16:00,38.7,-11.3,30.03,SSW,209,0.0,0.0,11,0.00,,---,0.00,VWS V14.01,2013-02-28 05:16:00,
2013-02-27 22:21:00,38.8,-11.2,30.03,SSW,211,0.0,0.0,11,0.00,,---,0.00,VWS V14.01,2013-02-28 05:21:00,
2013-02-27 22:27:00,38.7,-11.3,30.03,SW,223,3.1,3.1,11,0.00,,---,0.00,VWS V14.01,2013-02-28 05:27:00,
2013-02-27 22:32:00,39.4,-10.8,30.03,SW,218,5.4,5.4,11,0.00,,---,0.00,VWS V14.01,2013-02-28 05:32:00,
2013-02-27 22:37:00,39.4,-10.8,30.03,SSW,211,5.8,5.8,11,0.00,,---,0.00,VWS V14.01,2013-02-28 05:37:00,
2013-02-27 22:42:00,39.2,-10.9,30.03,SSW,208,3.6,3.6,11,0.00,,---,0.00,VWS V14.01,2013-02-28 05:42:00,
2013-02-27 22:47:00,39.2,-10.9,30.03,SW,220,3.6,3.6,11,0.00,,---,0.00,VWS V14.01,2013-02-28 05:47:00,
2013-02-27 22:52:00,39.0,-11.0,30.03,SSW,209,3.6,3.6,11,0.00,,---,0.00,VWS V14.01,2013-02-28 05:52:00,
2013-02-27 22:57:00,38.7,-11.3,30.03,SSW,206,0.0,0.0,11,0.00,,---,0.00,VWS V14.01,2013-02-28 05:57:00,
2013-02-27 23:02:00,38.1,-11.8,30.03,SSW,200,0.0,0.0,11,0.00,,---,0.00,VWS V14.01,2013-02-28 06:02:00,
2013-02-27 23:07:00,37.8,-12.0,30.03,SSW,209,0.0,0.0,11,0.00,,---,0.00,VWS V14.01,2013-02-28 06:07:00,
2013-02-27 23:12:00,37.6,-12.2,30.03,SSW,213,0.0,0.0,11,0.00,,---,0.00,VWS V14.01,2013-02-28 06:12:00,
2013-02-27 23:17:00,37.8,-12.0,30.03,SW,222,0.0,0.0,11,0.00,,---,0.00,VWS V14.01,2013-02-28 06:17:00,
2013-02-27 23:22:00,38.1,-11.8,30.03,SW,222,0.0,0.0,11,0.00,,---,0.00,VWS V14.01,2013-02-28 06:22:00,
2013-02-27 23:27:00,37.2,-10.7,30.03,SW,226,0.0,0.0,12,0.00,,---,0.00,VWS V14.01,2013-02-28 06:27:00,
2013-02-27 23:33:00,36.3,-11.4,30.03,SSW,198,0.0,0.0,12,0.00,,---,0.00,VWS V14.01,2013-02-28 06:33:00,
2013-02-27 23:38:00,35.8,-11.9,30.03,SSW,198,0.0,0.0,12,0.00,,---,0.00,VWS V14.01,2013-02-28 06:38:00,
2013-02-27 23:43:00,35.8,-11.9,30.01,NW,315,0.0,4.9,12,0.00,,---,0.00,VWS V14.01,2013-02-28 06:43:00,
2013-02-27 23:48:00,34.5,-12.9,30.01,WNW,288,0.0,0.0,12,0.00,,---,0.00,VWS V14.01,2013-02-28 06:48:00,
2013-02-27 23:53:00,33.6,-12.0,30.01,WNW,288,0.0,0.0,13,0.00,,---,0.00,VWS V14.01,2013-02-28 06:53:00,
2013-02-27 23:58:00,33.4,-12.1,30.03,SW,218,0.0,0.0,13,0.00,,---,0.00,VWS V14.01,2013-02-28 06:58:00,